createdAt,value
2018-09-10T00:00:03.608Z,1021.99
2018-09-10T00:01:03.480Z,1021.98
2018-09-10T00:02:03.661Z,1022
2018-09-10T00:03:03.674Z,1022.01
2018-09-10T00:04:03.673Z,1021.97
2018-09-10T00:05:03.590Z,1021.98
2018-09-10T00:06:03.463Z,1022
2018-09-10T00:07:03.405Z,1022.03
2018-09-10T00:08:03.496Z,1022.05
2018-09-10T00:09:03.606Z,1022.04
2018-09-10T00:10:03.714Z,1022.05
2018-09-10T00:11:03.381Z,1022.02
2018-09-10T00:12:03.720Z,1021.98
2018-09-10T00:13:03.611Z,1022.02
2018-09-10T00:14:03.741Z,1021.95
2018-09-10T00:15:03.407Z,1021.97
2018-09-10T00:16:03.407Z,1021.93
2018-09-10T00:17:03.833Z,1021.91
2018-09-10T00:18:03.606Z,1021.9
2018-09-10T00:19:03.554Z,1021.89
2018-09-10T00:20:03.557Z,1021.88
2018-09-10T00:21:03.388Z,1021.92
2018-09-10T00:22:03.694Z,1021.94
2018-09-10T00:23:03.604Z,1021.92
2018-09-10T00:24:03.461Z,1021.92
2018-09-10T00:25:03.538Z,1021.88
2018-09-10T00:26:03.601Z,1021.9
2018-09-10T00:27:03.690Z,1021.92
2018-09-10T00:28:03.403Z,1021.9
2018-09-10T00:29:03.511Z,1021.89
2018-09-10T00:30:03.514Z,1021.9
2018-09-10T00:31:03.538Z,1021.88
2018-09-10T00:32:03.365Z,1021.9
2018-09-10T00:33:03.723Z,1021.93
2018-09-10T00:34:03.771Z,1021.93
2018-09-10T00:35:03.730Z,1021.92
2018-09-10T00:36:03.963Z,1021.91
2018-09-10T00:37:03.389Z,1021.87
2018-09-10T00:38:03.690Z,1021.91
2018-09-10T00:39:03.649Z,1021.88
2018-09-10T00:40:03.642Z,1021.87
2018-09-10T00:41:03.859Z,1021.84
2018-09-10T00:42:03.550Z,1021.91
2018-09-10T00:43:03.562Z,1021.91
2018-09-10T00:44:03.722Z,1021.94
2018-09-10T00:45:03.695Z,1021.9
2018-09-10T00:46:03.677Z,1021.93
2018-09-10T00:47:03.436Z,1021.93
2018-09-10T00:48:03.816Z,1021.9
2018-09-10T00:49:03.396Z,1021.9
2018-09-10T00:50:03.851Z,1021.92
2018-09-10T00:51:03.565Z,1021.9
2018-09-10T00:52:03.588Z,1021.9
2018-09-10T00:53:03.583Z,1021.92
2018-09-10T00:54:03.581Z,1021.91
2018-09-10T00:55:03.495Z,1021.89
2018-09-10T00:56:03.772Z,1021.9
2018-09-10T00:57:03.615Z,1021.89
2018-09-10T00:58:03.932Z,1021.94
2018-09-10T00:59:03.716Z,1021.91
2018-09-10T01:00:03.685Z,1021.96
2018-09-10T01:01:03.598Z,1021.93
2018-09-10T01:02:03.727Z,1021.91
2018-09-10T01:03:03.773Z,1021.89
2018-09-10T01:04:03.481Z,1021.91
2018-09-10T01:05:03.667Z,1021.95
2018-09-10T01:06:03.422Z,1021.97
2018-09-10T01:07:03.429Z,1021.96
2018-09-10T01:08:03.642Z,1021.99
2018-09-10T01:09:03.593Z,1021.99
2018-09-10T01:10:03.846Z,1022.02
2018-09-10T01:11:03.663Z,1021.99
2018-09-10T01:12:03.469Z,1021.98
2018-09-10T01:13:03.803Z,1022.02
2018-09-10T01:14:03.752Z,1022
2018-09-10T01:15:03.377Z,1021.98
2018-09-10T01:16:03.576Z,1022
2018-09-10T01:17:03.624Z,1021.99
2018-09-10T01:18:03.438Z,1021.96
2018-09-10T01:19:03.448Z,1021.98
2018-09-10T01:20:03.559Z,1021.99
2018-09-10T01:21:03.367Z,1021.95
2018-09-10T01:22:03.636Z,1021.96
2018-09-10T01:23:03.506Z,1021.97
2018-09-10T01:24:03.835Z,1021.94
2018-09-10T01:25:03.559Z,1021.95
2018-09-10T01:26:03.569Z,1021.92
2018-09-10T01:27:03.499Z,1021.96
2018-09-10T01:28:03.892Z,1021.93
2018-09-10T01:29:03.768Z,1021.95
2018-09-10T01:30:03.379Z,1021.98
2018-09-10T01:31:03.616Z,1021.98
2018-09-10T01:32:03.399Z,1022.01
2018-09-10T01:33:03.808Z,1022.03
2018-09-10T01:34:03.717Z,1021.99
2018-09-10T01:35:03.353Z,1022.05
2018-09-10T01:36:03.499Z,1022.05
2018-09-10T01:37:03.560Z,1022.03
2018-09-10T01:38:03.431Z,1022
2018-09-10T01:39:03.720Z,1022
2018-09-10T01:40:03.390Z,1022.03
2018-09-10T01:41:03.751Z,1022.04
2018-09-10T01:42:03.435Z,1021.98
2018-09-10T01:43:03.638Z,1022.01
2018-09-10T01:44:03.424Z,1022.04
2018-09-10T01:45:03.677Z,1021.99
2018-09-10T01:46:03.350Z,1021.99
2018-09-10T01:47:03.528Z,1021.96
2018-09-10T01:48:03.445Z,1021.97
2018-09-10T01:49:03.860Z,1022.01
2018-09-10T01:50:03.835Z,1022
2018-09-10T01:51:03.446Z,1021.99
2018-09-10T01:52:03.377Z,1021.95
2018-09-10T01:53:03.387Z,1021.95
2018-09-10T01:54:03.345Z,1021.98
2018-09-10T01:55:03.464Z,1021.93
2018-09-10T01:56:03.400Z,1021.97
2018-09-10T01:57:03.675Z,1021.99
2018-09-10T01:58:03.383Z,1021.99
2018-09-10T01:59:03.809Z,1021.99
2018-09-10T02:00:03.488Z,1022.03
2018-09-10T02:01:03.426Z,1022.09
2018-09-10T02:02:03.720Z,1022.06
2018-09-10T02:03:03.862Z,1022.07
2018-09-10T02:04:03.721Z,1022.08
2018-09-10T02:05:03.412Z,1022.1
2018-09-10T02:06:03.723Z,1022.14
2018-09-10T02:07:03.414Z,1022.15
2018-09-10T02:08:04.089Z,1022.14
2018-09-10T02:09:03.713Z,1022.16
2018-09-10T02:10:03.773Z,1022.13
2018-09-10T02:11:03.736Z,1022.13
2018-09-10T02:12:03.376Z,1022.12
2018-09-10T02:13:03.417Z,1022.13
2018-09-10T02:14:03.373Z,1022.11
2018-09-10T02:15:03.784Z,1022.09
2018-09-10T02:16:03.399Z,1022.17
2018-09-10T02:17:03.417Z,1022.08
2018-09-10T02:18:03.476Z,1022.05
2018-09-10T02:19:03.366Z,1022.04
2018-09-10T02:20:03.588Z,1022.05
2018-09-10T02:21:03.584Z,1022.03
2018-09-10T02:22:03.604Z,1022.05
2018-09-10T02:23:03.797Z,1022.01
2018-09-10T02:24:03.384Z,1021.98
2018-09-10T02:25:03.498Z,1022
2018-09-10T02:26:03.422Z,1022.02
2018-09-10T02:27:03.656Z,1021.98
2018-09-10T02:28:03.347Z,1021.99
2018-09-10T02:29:03.868Z,1021.95
2018-09-10T02:30:03.585Z,1021.99
2018-09-10T02:31:03.482Z,1021.95
2018-09-10T02:32:03.822Z,1021.96
2018-09-10T02:33:03.777Z,1021.96
2018-09-10T02:34:03.464Z,1021.95
2018-09-10T02:35:03.736Z,1021.94
2018-09-10T02:36:03.359Z,1022
2018-09-10T02:37:03.729Z,1021.94
2018-09-10T02:38:03.545Z,1021.96
2018-09-10T02:39:03.707Z,1021.95
2018-09-10T02:40:03.765Z,1021.93
2018-09-10T02:41:03.713Z,1021.9
2018-09-10T02:42:03.601Z,1021.9
2018-09-10T02:43:03.656Z,1021.92
2018-09-10T02:44:03.739Z,1021.89
2018-09-10T02:45:03.499Z,1021.93
2018-09-10T02:46:03.636Z,1021.96
2018-09-10T02:47:03.399Z,1021.94
2018-09-10T02:48:03.651Z,1022.01
2018-09-10T02:49:03.486Z,1022.05
2018-09-10T02:50:03.558Z,1022.03
2018-09-10T02:51:03.500Z,1022
2018-09-10T02:52:03.630Z,1022.01
2018-09-10T02:53:03.709Z,1021.99
2018-09-10T02:54:03.591Z,1021.92
2018-09-10T02:55:04.019Z,1021.97
2018-09-10T02:56:03.604Z,1021.93
2018-09-10T02:57:03.436Z,1022.01
2018-09-10T02:58:03.628Z,1021.95
2018-09-10T02:59:03.753Z,1022
2018-09-10T03:00:03.359Z,1022.03
2018-09-10T03:01:03.585Z,1021.99
2018-09-10T03:02:03.417Z,1022.01
2018-09-10T03:03:03.520Z,1022.03
2018-09-10T03:04:03.620Z,1022.03
2018-09-10T03:05:03.410Z,1022.03
2018-09-10T03:06:03.460Z,1022.07
2018-09-10T03:07:03.448Z,1022.03
2018-09-10T03:08:03.507Z,1022.11
2018-09-10T03:09:03.399Z,1022.06
2018-09-10T03:10:03.409Z,1022.07
2018-09-10T03:11:03.635Z,1022.11
2018-09-10T03:12:03.504Z,1022.1
2018-09-10T03:13:03.705Z,1022.13
2018-09-10T03:14:03.755Z,1022.11
2018-09-10T03:15:03.488Z,1022.12
2018-09-10T03:16:03.420Z,1022.15
2018-09-10T03:17:03.392Z,1022.21
2018-09-10T03:18:03.965Z,1022.2
2018-09-10T03:19:03.415Z,1022.21
2018-09-10T03:20:03.821Z,1022.22
2018-09-10T03:21:03.525Z,1022.26
2018-09-10T03:22:03.739Z,1022.25
2018-09-10T03:23:03.475Z,1022.22
2018-09-10T03:24:03.609Z,1022.24
2018-09-10T03:25:03.856Z,1022.22
2018-09-10T03:26:03.380Z,1022.23
2018-09-10T03:27:03.268Z,1022.22
2018-09-10T03:28:03.403Z,1022.24
2018-09-10T03:29:03.453Z,1022.22
2018-09-10T03:30:03.747Z,1022.23
2018-09-10T03:31:03.446Z,1022.2
2018-09-10T03:32:03.953Z,1022.18
2018-09-10T03:33:03.643Z,1022.21
2018-09-10T03:34:03.642Z,1022.19
2018-09-10T03:35:03.496Z,1022.15
2018-09-10T03:36:03.706Z,1022.16
2018-09-10T03:37:03.469Z,1022.17
2018-09-10T03:38:03.443Z,1022.14
2018-09-10T03:39:03.432Z,1022.12
2018-09-10T03:40:03.533Z,1022.16
2018-09-10T03:41:03.334Z,1022.18
2018-09-10T03:42:03.684Z,1022.2
2018-09-10T03:43:03.404Z,1022.18
2018-09-10T03:44:03.783Z,1022.22
2018-09-10T03:45:03.792Z,1022.19
2018-09-10T03:46:03.482Z,1022.21
2018-09-10T03:47:03.675Z,1022.19
2018-09-10T03:48:03.687Z,1022.22
2018-09-10T03:49:03.462Z,1022.2
2018-09-10T03:50:03.522Z,1022.17
2018-09-10T03:51:03.376Z,1022.23
2018-09-10T03:52:03.510Z,1022.27
2018-09-10T03:53:03.795Z,1022.22
2018-09-10T03:54:03.416Z,1022.24
2018-09-10T03:55:03.466Z,1022.24
2018-09-10T03:56:03.680Z,1022.2
2018-09-10T03:57:03.665Z,1022.2
2018-09-10T03:58:03.786Z,1022.18
2018-09-10T03:59:03.523Z,1022.21
2018-09-10T04:00:03.516Z,1022.21
2018-09-10T04:01:03.492Z,1022.21
2018-09-10T04:02:03.451Z,1022.24
2018-09-10T04:03:03.738Z,1022.27
2018-09-10T04:04:03.513Z,1022.28
2018-09-10T04:05:03.842Z,1022.27
2018-09-10T04:06:03.342Z,1022.27
2018-09-10T04:07:03.397Z,1022.28
2018-09-10T04:08:03.376Z,1022.24
2018-09-10T04:09:03.662Z,1022.23
2018-09-10T04:10:03.314Z,1022.24
2018-09-10T04:11:03.646Z,1022.26
2018-09-10T04:12:03.666Z,1022.29
2018-09-10T04:13:03.676Z,1022.23
2018-09-10T04:14:03.327Z,1022.32
2018-09-10T04:15:03.746Z,1022.25
2018-09-10T04:16:03.711Z,1022.25
2018-09-10T04:17:03.826Z,1022.29
2018-09-10T04:18:03.628Z,1022.31
2018-09-10T04:19:03.445Z,1022.32
2018-09-10T04:20:03.425Z,1022.3
2018-09-10T04:21:03.413Z,1022.25
2018-09-10T04:22:03.310Z,1022.3
2018-09-10T04:23:04.007Z,1022.34
2018-09-10T04:24:03.639Z,1022.36
2018-09-10T04:25:03.528Z,1022.28
2018-09-10T04:26:04.076Z,1022.33
2018-09-10T04:27:03.406Z,1022.32
2018-09-10T04:28:03.387Z,1022.3
2018-09-10T04:29:03.482Z,1022.3
2018-09-10T04:30:03.604Z,1022.31
2018-09-10T04:31:03.436Z,1022.33
2018-09-10T04:32:03.707Z,1022.36
2018-09-10T04:33:03.622Z,1022.35
2018-09-10T04:34:03.636Z,1022.31
2018-09-10T04:35:03.750Z,1022.29
2018-09-10T04:36:03.699Z,1022.3
2018-09-10T04:37:03.986Z,1022.33
2018-09-10T04:38:03.576Z,1022.32
2018-09-10T04:39:03.707Z,1022.36
2018-09-10T04:40:03.373Z,1022.35
2018-09-10T04:41:03.333Z,1022.4
2018-09-10T04:42:03.583Z,1022.39
2018-09-10T04:43:03.409Z,1022.42
2018-09-10T04:44:03.623Z,1022.45
2018-09-10T04:45:03.609Z,1022.49
2018-09-10T04:46:03.664Z,1022.44
2018-09-10T04:47:03.456Z,1022.54
2018-09-10T04:48:03.509Z,1022.48
2018-09-10T04:49:03.458Z,1022.54
2018-09-10T04:50:03.388Z,1022.54
2018-09-10T04:51:03.429Z,1022.48
2018-09-10T04:52:03.379Z,1022.49
2018-09-10T04:53:03.492Z,1022.43
2018-09-10T04:54:03.420Z,1022.38
2018-09-10T04:55:03.296Z,1022.38
2018-09-10T04:56:03.400Z,1022.38
2018-09-10T04:57:03.693Z,1022.4
2018-09-10T04:58:03.665Z,1022.44
2018-09-10T04:59:03.591Z,1022.44
2018-09-10T05:00:03.464Z,1022.44
2018-09-10T05:01:03.434Z,1022.44
2018-09-10T05:02:03.498Z,1022.49
2018-09-10T05:03:03.301Z,1022.51
2018-09-10T05:04:03.556Z,1022.45
2018-09-10T05:05:03.420Z,1022.45
2018-09-10T05:06:03.392Z,1022.47
2018-09-10T05:07:03.565Z,1022.51
2018-09-10T05:08:03.548Z,1022.52
2018-09-10T05:09:03.567Z,1022.51
2018-09-10T05:10:03.716Z,1022.56
2018-09-10T05:11:03.409Z,1022.48
2018-09-10T05:12:03.642Z,1022.51
2018-09-10T05:13:03.963Z,1022.49
2018-09-10T05:14:03.915Z,1022.49
2018-09-10T05:15:03.379Z,1022.47
2018-09-10T05:16:03.401Z,1022.45
2018-09-10T05:17:03.493Z,1022.53
2018-09-10T05:18:03.309Z,1022.55
2018-09-10T05:19:03.474Z,1022.55
2018-09-10T05:20:03.385Z,1022.55
2018-09-10T05:21:03.410Z,1022.58
2018-09-10T05:22:03.786Z,1022.62
2018-09-10T05:23:03.637Z,1022.63
2018-09-10T05:24:03.618Z,1022.66
2018-09-10T05:25:03.411Z,1022.68
2018-09-10T05:26:03.477Z,1022.7
2018-09-10T05:27:03.795Z,1022.76
2018-09-10T05:28:03.545Z,1022.75
2018-09-10T05:29:03.571Z,1022.69
2018-09-10T05:30:03.603Z,1022.72
2018-09-10T05:31:03.493Z,1022.71
2018-09-10T05:32:03.697Z,1022.73
2018-09-10T05:33:03.485Z,1022.71
2018-09-10T05:34:03.617Z,1022.68
2018-09-10T05:35:03.676Z,1022.72
2018-09-10T05:36:03.726Z,1022.73
2018-09-10T05:37:03.304Z,1022.75
2018-09-10T05:38:03.663Z,1022.81
2018-09-10T05:39:03.804Z,1022.86
2018-09-10T05:40:03.644Z,1022.89
2018-09-10T05:41:03.381Z,1022.97
2018-09-10T05:42:03.746Z,1023
2018-09-10T05:43:03.615Z,1023
2018-09-10T05:44:03.743Z,1023.02
2018-09-10T05:45:03.445Z,1023
2018-09-10T05:46:03.710Z,1023.06
2018-09-10T05:47:03.366Z,1023.06
2018-09-10T05:48:03.389Z,1023.07
2018-09-10T05:49:03.570Z,1023.05
2018-09-10T05:50:03.624Z,1023.05
2018-09-10T05:51:03.380Z,1023.07
2018-09-10T05:52:03.467Z,1023.04
2018-09-10T05:53:03.539Z,1023.07
2018-09-10T05:54:03.720Z,1023.1
2018-09-10T05:55:03.635Z,1023.03
2018-09-10T05:56:03.662Z,1023.04
2018-09-10T05:57:03.486Z,1023.04
2018-09-10T05:58:03.464Z,1023.1
2018-09-10T05:59:03.628Z,1023.08
2018-09-10T06:00:03.393Z,1023.17
2018-09-10T06:01:03.674Z,1023.17
2018-09-10T06:02:03.285Z,1023.24
2018-09-10T06:03:03.668Z,1023.22
2018-09-10T06:04:03.504Z,1023.25
2018-09-10T06:05:03.522Z,1023.28
2018-09-10T06:06:03.458Z,1023.34
2018-09-10T06:07:03.401Z,1023.36
2018-09-10T06:08:03.498Z,1023.39
2018-09-10T06:09:03.350Z,1023.4
2018-09-10T06:10:03.705Z,1023.4
2018-09-10T06:11:03.530Z,1023.4
2018-09-10T06:12:03.386Z,1023.34
2018-09-10T06:13:03.363Z,1023.37
2018-09-10T06:14:03.553Z,1023.34
2018-09-10T06:15:03.227Z,1023.34
2018-09-10T06:16:03.313Z,1023.33
2018-09-10T06:17:03.337Z,1023.41
2018-09-10T06:18:03.449Z,1023.37
2018-09-10T06:19:03.584Z,1023.39
2018-09-10T06:20:03.291Z,1023.39
2018-09-10T06:21:03.448Z,1023.37
2018-09-10T06:22:03.476Z,1023.39
2018-09-10T06:23:03.299Z,1023.35
2018-09-10T06:24:03.601Z,1023.34
2018-09-10T06:25:03.737Z,1023.34
2018-09-10T06:26:03.617Z,1023.31
2018-09-10T06:27:03.573Z,1023.31
2018-09-10T06:28:03.378Z,1023.32
2018-09-10T06:29:03.341Z,1023.28
2018-09-10T06:30:03.681Z,1023.27
2018-09-10T06:31:03.644Z,1023.24
2018-09-10T06:32:03.461Z,1023.27
2018-09-10T06:33:03.399Z,1023.28
2018-09-10T06:34:03.383Z,1023.29
2018-09-10T06:35:03.398Z,1023.28
2018-09-10T06:36:03.780Z,1023.32
2018-09-10T06:37:03.783Z,1023.31
2018-09-10T06:38:03.421Z,1023.28
2018-09-10T06:39:03.493Z,1023.3
2018-09-10T06:40:03.359Z,1023.26
2018-09-10T06:41:03.357Z,1023.27
2018-09-10T06:42:03.622Z,1023.29
2018-09-10T06:43:03.341Z,1023.29
2018-09-10T06:44:03.656Z,1023.26
2018-09-10T06:45:03.491Z,1023.32
2018-09-10T06:46:03.695Z,1023.33
2018-09-10T06:47:03.339Z,1023.33
2018-09-10T06:48:03.444Z,1023.31
2018-09-10T06:49:03.613Z,1023.31
2018-09-10T06:50:03.312Z,1023.33
2018-09-10T06:51:03.602Z,1023.3
2018-09-10T06:52:03.436Z,1023.28
2018-09-10T06:53:03.777Z,1023.25
2018-09-10T06:54:03.449Z,1023.21
2018-09-10T06:55:03.480Z,1023.26
2018-09-10T06:56:03.378Z,1023.27
2018-09-10T06:57:03.593Z,1023.29
2018-09-10T06:58:03.370Z,1023.33
2018-09-10T06:59:03.458Z,1023.3
2018-09-10T07:00:03.293Z,1023.35
2018-09-10T07:01:03.425Z,1023.32
2018-09-10T07:02:03.561Z,1023.37
2018-09-10T07:03:03.382Z,1023.38
2018-09-10T07:04:03.400Z,1023.4
2018-09-10T07:05:03.365Z,1023.38
2018-09-10T07:06:03.709Z,1023.42
2018-09-10T07:07:03.416Z,1023.41
2018-09-10T07:08:03.368Z,1023.39
2018-09-10T07:09:03.635Z,1023.39
2018-09-10T07:10:03.553Z,1023.38
2018-09-10T07:11:04.012Z,1023.4
2018-09-10T07:12:03.698Z,1023.38
2018-09-10T07:13:03.390Z,1023.38
2018-09-10T07:14:03.330Z,1023.41
2018-09-10T07:15:03.294Z,1023.45
2018-09-10T07:16:03.303Z,1023.42
2018-09-10T07:17:03.778Z,1023.4
2018-09-10T07:18:03.287Z,1023.41
2018-09-10T07:19:03.638Z,1023.42
2018-09-10T07:20:03.621Z,1023.48
2018-09-10T07:21:03.434Z,1023.42
2018-09-10T07:22:03.277Z,1023.44
2018-09-10T07:23:03.411Z,1023.39
2018-09-10T07:24:03.629Z,1023.39
2018-09-10T07:25:03.573Z,1023.48
2018-09-10T07:26:03.664Z,1023.5
2018-09-10T07:27:03.488Z,1023.5
2018-09-10T07:28:03.415Z,1023.49
2018-09-10T07:29:03.314Z,1023.46
2018-09-10T07:30:03.330Z,1023.48
2018-09-10T07:31:03.875Z,1023.44
2018-09-10T07:32:03.376Z,1023.43
2018-09-10T07:33:03.502Z,1023.45
2018-09-10T07:34:03.555Z,1023.46
2018-09-10T07:35:03.375Z,1023.42
2018-09-10T07:36:03.332Z,1023.42
2018-09-10T07:37:03.325Z,1023.41
2018-09-10T07:38:03.316Z,1023.39
2018-09-10T07:39:03.553Z,1023.44
2018-09-10T07:40:03.401Z,1023.44
2018-09-10T07:41:03.558Z,1023.49
2018-09-10T07:42:03.374Z,1023.46
2018-09-10T07:43:03.444Z,1023.5
2018-09-10T07:44:03.782Z,1023.46
2018-09-10T07:45:03.425Z,1023.53
2018-09-10T07:46:03.357Z,1023.52
2018-09-10T07:47:03.308Z,1023.52
2018-09-10T07:48:03.306Z,1023.5
2018-09-10T07:49:03.559Z,1023.56
2018-09-10T07:50:03.344Z,1023.53
2018-09-10T07:51:03.633Z,1023.55
2018-09-10T07:52:03.412Z,1023.6
2018-09-10T07:53:03.392Z,1023.59
2018-09-10T07:54:03.537Z,1023.63
2018-09-10T07:55:03.335Z,1023.63
2018-09-10T07:56:03.699Z,1023.62
2018-09-10T07:57:03.421Z,1023.62
2018-09-10T07:58:03.325Z,1023.57
2018-09-10T07:59:03.343Z,1023.62
2018-09-10T08:00:03.784Z,1023.58
2018-09-10T08:01:03.417Z,1023.62
2018-09-10T08:02:03.301Z,1023.62
2018-09-10T08:03:03.831Z,1023.61
2018-09-10T08:04:03.473Z,1023.59
2018-09-10T08:05:03.826Z,1023.62
2018-09-10T08:06:03.481Z,1023.6
2018-09-10T08:07:03.686Z,1023.6
2018-09-10T08:08:03.403Z,1023.59
2018-09-10T08:09:03.566Z,1023.53
2018-09-10T08:10:03.617Z,1023.53
2018-09-10T08:11:03.400Z,1023.51
2018-09-10T08:12:03.471Z,1023.48
2018-09-10T08:13:03.430Z,1023.52
2018-09-10T08:14:03.489Z,1023.54
2018-09-10T08:15:03.369Z,1023.54
2018-09-10T08:16:03.294Z,1023.5
2018-09-10T08:17:03.761Z,1023.46
2018-09-10T08:18:03.240Z,1023.52
2018-09-10T08:19:03.450Z,1023.55
2018-09-10T08:20:03.454Z,1023.52
2018-09-10T08:21:03.300Z,1023.52
2018-09-10T08:22:03.667Z,1023.53
2018-09-10T08:23:03.480Z,1023.58
2018-09-10T08:24:03.442Z,1023.61
2018-09-10T08:25:03.637Z,1023.61
2018-09-10T08:26:03.411Z,1023.64
2018-09-10T08:27:03.353Z,1023.61
2018-09-10T08:28:03.307Z,1023.63
2018-09-10T08:29:03.434Z,1023.64
2018-09-10T08:30:03.399Z,1023.69
2018-09-10T08:31:03.252Z,1023.66
2018-09-10T08:32:03.278Z,1023.65
2018-09-10T08:33:03.897Z,1023.68
2018-09-10T08:34:03.308Z,1023.63
2018-09-10T08:35:03.346Z,1023.65
2018-09-10T08:36:03.561Z,1023.58
2018-09-10T08:37:03.263Z,1023.62
2018-09-10T08:38:03.261Z,1023.58
2018-09-10T08:39:03.320Z,1023.59
2018-09-10T08:40:03.302Z,1023.61
2018-09-10T08:41:03.731Z,1023.6
2018-09-10T08:42:03.393Z,1023.62
2018-09-10T08:43:03.559Z,1023.63
2018-09-10T08:44:03.587Z,1023.56
2018-09-10T08:45:03.338Z,1023.57
2018-09-10T08:46:03.775Z,1023.52
2018-09-10T08:47:03.275Z,1023.61
2018-09-10T08:48:03.516Z,1023.53
2018-09-10T08:49:03.438Z,1023.58
2018-09-10T08:50:03.489Z,1023.54
2018-09-10T08:51:03.336Z,1023.53
2018-09-10T08:52:03.388Z,1023.53
2018-09-10T08:53:03.751Z,1023.57
2018-09-10T08:54:03.809Z,1023.49
2018-09-10T08:55:04.191Z,1023.49
2018-09-10T08:56:04.824Z,1023.49
2018-09-10T08:57:03.296Z,1023.55
2018-09-10T08:58:03.316Z,1023.57
2018-09-10T08:59:03.354Z,1023.51
2018-09-10T09:00:03.723Z,1023.52
2018-09-10T09:01:03.410Z,1023.53
2018-09-10T09:02:03.870Z,1023.51
2018-09-10T09:03:03.723Z,1023.53
2018-09-10T09:04:03.329Z,1023.51
2018-09-10T09:05:03.372Z,1023.48
2018-09-10T09:06:03.816Z,1023.45
2018-09-10T09:07:03.212Z,1023.46
2018-09-10T09:08:03.581Z,1023.45
2018-09-10T09:09:03.395Z,1023.43
2018-09-10T09:10:03.248Z,1023.43
2018-09-10T09:11:03.477Z,1023.42
2018-09-10T09:12:03.428Z,1023.46
2018-09-10T09:13:03.245Z,1023.46
2018-09-10T09:14:03.569Z,1023.43
2018-09-10T09:15:03.271Z,1023.45
2018-09-10T09:16:03.473Z,1023.49
2018-09-10T09:17:03.672Z,1023.4
2018-09-10T09:18:03.447Z,1023.39
2018-09-10T09:19:03.247Z,1023.41
2018-09-10T09:20:03.479Z,1023.42
2018-09-10T09:21:03.452Z,1023.42
2018-09-10T09:22:03.463Z,1023.47
2018-09-10T09:23:03.489Z,1023.51
2018-09-10T09:24:03.875Z,1023.48
2018-09-10T09:25:03.344Z,1023.58
2018-09-10T09:26:03.970Z,1023.57
2018-09-10T09:27:03.460Z,1023.57
2018-09-10T09:28:03.229Z,1023.57
2018-09-10T09:29:03.380Z,1023.58
2018-09-10T09:30:03.626Z,1023.54
2018-09-10T09:31:03.289Z,1023.57
2018-09-10T09:32:03.753Z,1023.58
2018-09-10T09:33:03.260Z,1023.58
2018-09-10T09:34:03.675Z,1023.58
2018-09-10T09:35:03.368Z,1023.58
2018-09-10T09:36:03.604Z,1023.56
2018-09-10T09:37:03.268Z,1023.55
2018-09-10T09:38:03.773Z,1023.59
2018-09-10T09:39:03.692Z,1023.55
2018-09-10T09:40:03.621Z,1023.54
2018-09-10T09:41:03.350Z,1023.54
2018-09-10T09:42:03.427Z,1023.56
2018-09-10T09:43:03.257Z,1023.55
2018-09-10T09:44:03.558Z,1023.51
2018-09-10T09:45:03.447Z,1023.51
2018-09-10T09:46:03.377Z,1023.53
2018-09-10T09:47:03.689Z,1023.51
2018-09-10T09:48:04.076Z,1023.52
2018-09-10T09:49:03.707Z,1023.49
2018-09-10T09:50:03.581Z,1023.51
2018-09-10T09:51:03.600Z,1023.5
2018-09-10T09:52:03.415Z,1023.51
2018-09-10T09:53:03.452Z,1023.47
2018-09-10T09:54:03.996Z,1023.43
2018-09-10T09:55:03.811Z,1023.44
2018-09-10T09:56:03.491Z,1023.42
2018-09-10T09:57:03.367Z,1023.44
2018-09-10T09:58:03.567Z,1023.4
2018-09-10T09:59:03.603Z,1023.37
2018-09-10T10:00:04.708Z,1023.35
2018-09-10T10:01:03.297Z,1023.34
2018-09-10T10:02:03.458Z,1023.39
2018-09-10T10:03:03.461Z,1023.37
2018-09-10T10:04:03.616Z,1023.36
2018-09-10T10:05:03.451Z,1023.34
2018-09-10T10:06:03.244Z,1023.33
2018-09-10T10:07:03.553Z,1023.36
2018-09-10T10:08:03.722Z,1023.3
2018-09-10T10:09:03.404Z,1023.35
2018-09-10T10:10:03.451Z,1023.27
2018-09-10T10:11:03.726Z,1023.29
2018-09-10T10:12:03.795Z,1023.24
2018-09-10T10:13:03.232Z,1023.24
2018-09-10T10:14:03.156Z,1023.24
2018-09-10T10:15:03.378Z,1023.24
2018-09-10T10:16:04.177Z,1023.15
2018-09-10T10:17:03.368Z,1023.23
2018-09-10T10:18:03.195Z,1023.23
2018-09-10T10:19:03.381Z,1023.21
2018-09-10T10:20:03.236Z,1023.24
2018-09-10T10:21:03.733Z,1023.25
2018-09-10T10:22:03.512Z,1023.22
2018-09-10T10:23:03.277Z,1023.24
2018-09-10T10:24:03.270Z,1023.16
2018-09-10T10:25:03.415Z,1023.2
2018-09-10T10:26:03.265Z,1023.22
2018-09-10T10:27:03.424Z,1023.23
2018-09-10T10:28:03.398Z,1023.23
2018-09-10T10:29:03.507Z,1023.23
2018-09-10T10:30:03.852Z,1023.27
2018-09-10T10:31:03.344Z,1023.24
2018-09-10T10:32:03.265Z,1023.23
2018-09-10T10:33:03.253Z,1023.19
2018-09-10T10:34:03.430Z,1023.23
2018-09-10T10:35:03.199Z,1023.17
2018-09-10T10:36:03.415Z,1023.18
2018-09-10T10:37:03.484Z,1023.17
2018-09-10T10:38:03.181Z,1023.15
2018-09-10T10:39:03.812Z,1023.1
2018-09-10T10:40:04.115Z,1023.08
2018-09-10T10:41:03.310Z,1023.06
2018-09-10T10:42:03.218Z,1023.07
2018-09-10T10:43:03.388Z,1023.06
2018-09-10T10:44:03.269Z,1023.03
2018-09-10T10:45:03.254Z,1023.03
2018-09-10T10:46:03.767Z,1022.99
2018-09-10T10:47:03.261Z,1022.96
2018-09-10T10:48:03.546Z,1023.02
2018-09-10T10:49:03.331Z,1023.03
2018-09-10T10:50:03.251Z,1022.99
2018-09-10T10:51:03.532Z,1022.99
2018-09-10T10:52:03.365Z,1022.98
2018-09-10T10:53:03.272Z,1022.99
2018-09-10T10:54:03.320Z,1022.97
2018-09-10T10:55:03.340Z,1022.91
2018-09-10T10:56:03.370Z,1022.9
2018-09-10T10:57:03.374Z,1022.94
2018-09-10T10:58:03.324Z,1022.88
2018-09-10T10:59:03.425Z,1022.89
2018-09-10T11:00:03.347Z,1022.89
2018-09-10T11:01:03.358Z,1022.86
2018-09-10T11:02:03.419Z,1022.86
2018-09-10T11:03:03.318Z,1022.85
2018-09-10T11:04:03.468Z,1022.92
2018-09-10T11:05:03.482Z,1022.87
2018-09-10T11:06:03.481Z,1022.84
2018-09-10T11:07:03.289Z,1022.94
2018-09-10T11:08:03.370Z,1022.91
2018-09-10T11:09:03.493Z,1022.89
2018-09-10T11:10:03.581Z,1022.96
2018-09-10T11:11:03.939Z,1022.92
2018-09-10T11:12:03.339Z,1022.93
2018-09-10T11:13:03.345Z,1022.9
2018-09-10T11:14:03.308Z,1022.86
2018-09-10T11:15:03.532Z,1022.87
2018-09-10T11:16:03.373Z,1022.89
2018-09-10T11:17:03.624Z,1022.88
2018-09-10T11:18:03.570Z,1022.89
2018-09-10T11:19:03.534Z,1022.84
2018-09-10T11:20:03.383Z,1022.85
2018-09-10T11:21:03.377Z,1022.83
2018-09-10T11:22:03.772Z,1022.86
2018-09-10T11:23:03.643Z,1022.82
2018-09-10T11:24:03.497Z,1022.79
2018-09-10T11:25:03.264Z,1022.81
2018-09-10T11:26:03.792Z,1022.75
2018-09-10T11:27:03.315Z,1022.76
2018-09-10T11:28:03.434Z,1022.8
2018-09-10T11:29:03.305Z,1022.79
2018-09-10T11:30:03.388Z,1022.81
2018-09-10T11:31:03.413Z,1022.77
2018-09-10T11:32:03.286Z,1022.8
2018-09-10T11:33:03.625Z,1022.77
2018-09-10T11:34:03.347Z,1022.79
2018-09-10T11:35:03.426Z,1022.77
2018-09-10T11:36:03.659Z,1022.78
2018-09-10T11:37:03.490Z,1022.8
2018-09-10T11:38:03.286Z,1022.84
2018-09-10T11:39:03.430Z,1022.81
2018-09-10T11:40:03.697Z,1022.83
2018-09-10T11:41:03.305Z,1022.85
2018-09-10T11:42:03.229Z,1022.86
2018-09-10T11:43:03.413Z,1022.89
2018-09-10T11:44:03.406Z,1022.85
2018-09-10T11:45:03.318Z,1022.84
2018-09-10T11:46:03.298Z,1022.81
2018-09-10T11:47:03.416Z,1022.84
2018-09-10T11:48:03.228Z,1022.8
2018-09-10T11:49:03.386Z,1022.78
2018-09-10T11:50:03.400Z,1022.76
2018-09-10T11:51:03.490Z,1022.74
2018-09-10T11:52:03.378Z,1022.75
2018-09-10T11:53:03.531Z,1022.7
2018-09-10T11:54:03.292Z,1022.75
2018-09-10T11:55:03.204Z,1022.7
2018-09-10T11:56:03.533Z,1022.68
2018-09-10T11:57:03.433Z,1022.69
2018-09-10T11:58:03.702Z,1022.67
2018-09-10T11:59:03.353Z,1022.65
2018-09-10T12:00:03.683Z,1022.7
2018-09-10T12:01:03.714Z,1022.73
2018-09-10T12:02:03.705Z,1022.72
2018-09-10T12:03:03.565Z,1022.71
2018-09-10T12:04:03.248Z,1022.67
2018-09-10T12:05:03.615Z,1022.67
2018-09-10T12:06:03.240Z,1022.67
2018-09-10T12:07:03.530Z,1022.66
2018-09-10T12:08:03.670Z,1022.59
2018-09-10T12:09:03.622Z,1022.59